Time;durP1;ratioP1;P1;durP2;ratioP2;P2;SDS_P1;SDS_P2;PMS_P1;PMS_P2;Temp;Humidity;BMP_temperature;BMP_pressure;BME280_temperature;BME280_humidity;BME280_pressure;Samples;Min_cycle;Max_cycle;Signal;HPM_P1;HPM_P2
2023/09/05 00:02:15;;;;;;;6.82;2.67;;;;;;;14.92;100.00;101237.53;5072257;28;20036;-52
2023/09/05 00:04:42;;;;;;;4.00;2.70;;;;;;;15.00;100.00;101226.66;5053403;28;20112;-52
2023/09/05 00:07:09;;;;;;;6.63;2.53;;;;;;;15.01;100.00;101222.16;5058251;28;20020;-49
2023/09/05 00:09:36;;;;;;;4.05;3.45;;;;;;;15.03;100.00;101223.59;5054673;28;20498;-53
2023/09/05 00:12:02;;;;;;;4.45;3.38;;;;;;;14.95;100.00;101209.63;5063833;28;20032;-50
2023/09/05 00:14:28;;;;;;;3.97;3.63;;;;;;;14.89;100.00;101208.53;5051221;28;20036;-52
2023/09/05 00:16:54;;;;;;;3.63;2.83;;;;;;;14.87;100.00;101213.28;5050021;28;20485;-54
2023/09/05 00:19:19;;;;;;;4.38;3.42;;;;;;;14.82;100.00;101211.22;5050552;28;20036;-52
2023/09/05 00:21:44;;;;;;;5.53;3.60;;;;;;;14.79;100.00;101205.44;5049442;28;20036;-53
2023/09/05 00:24:31;;;;;;;7.03;3.38;;;;;;;14.76;100.00;101211.19;5055723;28;20550;-48
2023/09/05 00:27:00;;;;;;;4.00;3.17;;;;;;;14.73;100.00;101216.94;5055482;28;20032;-52
2023/09/05 00:29:26;;;;;;;4.85;3.35;;;;;;;14.70;100.00;101212.00;5055967;28;20140;-54
2023/09/05 00:31:58;;;;;;;5.30;3.13;;;;;;;14.67;100.00;101205.22;5055772;28;20393;-51
2023/09/05 00:34:24;;;;;;;6.40;4.07;;;;;;;14.76;100.00;101192.50;5053924;28;20028;-51
2023/09/05 00:36:52;;;;;;;4.35;3.95;;;;;;;14.81;100.00;101190.03;5056850;28;20028;-49
2023/09/05 00:39:17;;;;;;;6.88;3.70;;;;;;;14.89;100.00;101189.84;5056065;28;20040;-52
2023/09/05 00:41:43;;;;;;;5.95;2.72;;;;;;;14.87;100.00;101183.91;5048539;28;20032;-52
2023/09/05 00:44:10;;;;;;;12.23;5.10;;;;;;;14.87;100.00;101178.56;5048132;28;20487;-53
2023/09/05 00:46:35;;;;;;;8.20;4.75;;;;;;;14.89;100.00;101181.03;5055868;28;20043;-49
2023/09/05 00:49:02;;;;;;;7.80;5.32;;;;;;;15.03;100.00;101175.53;5057361;28;20485;-52
2023/09/05 00:51:30;;;;;;;8.60;5.85;;;;;;;15.13;100.00;101174.31;5044574;28;20024;-51
2023/09/05 00:53:55;;;;;;;8.60;6.13;;;;;;;15.27;100.00;101175.94;5051037;28;20029;-55
2023/09/05 00:56:21;;;;;;;8.65;5.05;;;;;;;15.35;100.00;101173.06;5053955;28;20033;-51
2023/09/05 00:58:46;;;;;;;8.20;5.32;;;;;;;15.33;100.00;101179.63;5053084;28;20369;-53
2023/09/05 01:01:11;;;;;;;8.18;5.65;;;;;;;15.33;100.00;101175.09;5056175;28;20036;-53
2023/09/05 01:03:37;;;;;;;9.18;6.47;;;;;;;15.37;100.00;101175.53;5047462;28;20039;-52
2023/09/05 01:06:08;;;;;;;7.50;5.57;;;;;;;15.32;100.00;101167.31;5050588;28;20047;-55
2023/09/05 01:08:46;;;;;;;7.35;5.20;;;;;;;15.31;100.00;101165.66;5061989;28;20389;-52
2023/09/05 01:11:14;;;;;;;7.75;6.13;;;;;;;15.31;100.00;101160.31;5062087;28;20373;-50
2023/09/05 01:13:41;;;;;;;9.80;6.45;;;;;;;15.37;100.00;101154.16;5054036;28;20036;-51
2023/09/05 01:16:08;;;;;;;10.88;6.80;;;;;;;15.36;100.00;101157.84;5049408;28;20032;-52
2023/09/05 01:18:34;;;;;;;10.82;7.30;;;;;;;15.35;100.00;101151.69;5063955;28;20026;-52
2023/09/05 01:21:21;;;;;;;9.23;6.28;;;;;;;15.34;100.00;101150.06;5048830;28;20024;-50
2023/09/05 01:24:09;;;;;;;12.95;7.72;;;;;;;15.37;100.00;101154.16;5053642;28;20060;-53
2023/09/05 01:26:34;;;;;;;9.80;6.80;;;;;;;15.50;100.00;101159.50;5057099;28;20519;-53
2023/09/05 01:29:00;;;;;;;19.75;8.50;;;;;;;15.73;100.00;101164.44;5061081;28;20081;-52
2023/09/05 01:31:26;;;;;;;14.95;7.18;;;;;;;15.85;100.00;101151.25;5055777;28;20058;-52
2023/09/05 01:33:51;;;;;;;13.93;8.35;;;;;;;15.76;100.00;101147.97;5062510;28;20545;-52
2023/09/05 01:36:17;;;;;;;10.70;7.22;;;;;;;15.72;100.00;101151.28;5062174;28;20091;-53
2023/09/05 01:38:43;;;;;;;13.10;8.40;;;;;;;15.72;100.00;101144.09;5056307;28;20032;-51
2023/09/05 01:41:08;;;;;;;20.85;8.57;;;;;;;15.67;100.00;101150.03;5056299;28;20360;-53
2023/09/05 01:43:34;;;;;;;12.38;8.20;;;;;;;15.66;100.00;101132.31;5059941;28;20423;-53
2023/09/05 01:45:59;;;;;;;9.27;7.20;;;;;;;15.62;100.00;101144.47;5056697;28;20029;-53
2023/09/05 01:48:24;;;;;;;11.95;7.70;;;;;;;15.66;100.00;101136.84;5057344;28;20031;-52
2023/09/05 01:50:49;;;;;;;12.32;6.68;;;;;;;15.58;100.00;101137.91;5051988;28;20686;-50
2023/09/05 01:53:15;;;;;;;10.30;7.07;;;;;;;15.47;100.00;101134.00;5051309;28;20116;-50
2023/09/05 01:55:40;;;;;;;9.52;7.80;;;;;;;15.39;100.00;101128.06;5056679;28;20031;-52
2023/09/05 01:58:05;;;;;;;9.90;7.22;;;;;;;15.32;100.00;101136.06;5053540;28;20043;-50
2023/09/05 02:00:32;;;;;;;9.73;7.60;;;;;;;15.23;100.00;101130.13;5059533;28;20039;-53
2023/09/05 02:02:57;;;;;;;11.85;7.78;;;;;;;15.17;100.00;101124.78;5047793;28;20623;-54
2023/09/05 02:05:22;;;;;;;12.15;7.43;;;;;;;15.18;100.00;101126.41;5059189;28;20040;-53
2023/09/05 02:07:48;;;;;;;10.63;7.13;;;;;;;15.19;100.00;101128.06;5056095;28;20032;-51
2023/09/05 02:10:13;;;;;;;8.80;6.65;;;;;;;15.13;100.00;101126.22;5064028;28;20249;-52
2023/09/05 02:12:43;;;;;;;10.65;8.50;;;;;;;15.11;100.00;101117.59;5049789;28;20029;-51
2023/09/05 02:15:09;;;;;;;16.60;8.02;;;;;;;15.10;100.00;101118.59;5059761;28;20041;-50
2023/09/05 02:17:35;;;;;;;10.85;8.45;;;;;;;15.02;100.00;101117.81;5055459;28;20032;-53
2023/09/05 02:20:01;;;;;;;9.95;7.57;;;;;;;14.91;100.00;101118.38;5057605;28;20037;-50
2023/09/05 02:22:26;;;;;;;13.05;8.85;;;;;;;14.96;100.00;101123.13;5053802;28;20036;-49
2023/09/05 02:24:51;;;;;;;14.07;9.00;;;;;;;15.02;100.00;101117.81;5049509;28;20052;-54
2023/09/05 02:27:17;;;;;;;12.82;8.18;;;;;;;15.19;100.00;101117.38;5056496;28;20032;-51
2023/09/05 02:29:42;;;;;;;14.05;9.38;;;;;;;15.27;100.00;101107.31;5051252;28;20694;-52
2023/09/05 02:32:07;;;;;;;13.25;8.80;;;;;;;15.33;100.00;101104.84;5060482;28;20516;-50
2023/09/05 02:34:33;;;;;;;12.20;9.27;;;;;;;15.33;100.00;101107.50;5050532;28;20076;-53
2023/09/05 02:37:00;;;;;;;16.65;10.32;;;;;;;15.41;100.00;101100.13;5052504;28;20025;-53
2023/09/05 02:39:26;;;;;;;12.80;9.15;;;;;;;15.37;100.00;101104.22;5049881;28;20036;-52
2023/09/05 02:41:51;;;;;;;14.15;9.13;;;;;;;15.56;100.00;101099.03;5054701;28;20503;-52
2023/09/05 02:44:17;;;;;;;15.75;10.20;;;;;;;15.37;100.00;101111.41;5059779;28;20031;-55
2023/09/05 02:46:43;;;;;;;17.08;10.20;;;;;;;15.41;100.00;101107.28;5045796;28;20427;-51
2023/09/05 02:49:09;;;;;;;15.82;10.40;;;;;;;15.74;100.00;101107.25;5058005;28;20036;-49
2023/09/05 02:51:34;;;;;;;15.20;10.15;;;;;;;15.90;100.00;101104.13;5059531;28;20492;-51
2023/09/05 02:54:00;;;;;;;18.40;11.32;;;;;;;15.81;100.00;101097.38;5063449;28;20032;-52
2023/09/05 02:56:25;;;;;;;19.30;11.15;;;;;;;15.75;100.00;101092.88;5050186;28;20055;-50
2023/09/05 02:58:51;;;;;;;13.10;9.32;;;;;;;15.80;100.00;101094.88;5058450;28;20079;-50
2023/09/05 03:01:16;;;;;;;18.27;10.85;;;;;;;15.73;100.00;101088.78;5054357;28;20496;-52
2023/09/05 03:03:42;;;;;;;15.23;9.52;;;;;;;15.84;100.00;101096.94;5054724;28;20024;-52
2023/09/05 03:06:15;;;;;;;17.23;10.38;;;;;;;15.83;100.00;101089.16;5062695;28;20545;-51
2023/09/05 03:08:42;;;;;;;17.15;10.38;;;;;;;15.87;100.00;101087.69;5058519;28;20546;-50
2023/09/05 03:11:08;;;;;;;17.08;11.00;;;;;;;15.96;100.00;101088.28;5059336;28;20040;-52
2023/09/05 03:13:34;;;;;;;15.35;9.48;;;;;;;16.00;100.00;101092.16;5054687;28;20396;-51
2023/09/05 03:15:59;;;;;;;17.35;10.65;;;;;;;15.95;100.00;101086.63;5055184;28;20082;-50
2023/09/05 03:18:25;;;;;;;15.70;10.43;;;;;;;15.92;100.00;101088.69;5049102;28;20028;-49
2023/09/05 03:20:51;;;;;;;17.00;10.93;;;;;;;15.87;100.00;101090.34;5059207;28;20044;-52
2023/09/05 03:23:16;;;;;;;14.45;10.73;;;;;;;15.82;100.00;101092.84;5051542;28;20063;-53
2023/09/05 03:25:42;;;;;;;18.27;12.10;;;;;;;15.85;100.00;101097.75;5061926;28;20052;-54
2023/09/05 03:28:11;;;;;;;17.83;11.85;;;;;;;15.87;100.00;101107.22;5052099;28;20081;-55
2023/09/05 03:30:37;;;;;;;16.85;10.82;;;;;;;15.83;100.00;101097.16;5046802;28;20199;-52
2023/09/05 03:33:02;;;;;;;19.83;11.23;;;;;;;15.74;100.00;101101.91;5044692;28;20025;-50
2023/09/05 03:35:28;;;;;;;16.65;10.55;;;;;;;15.63;100.00;101094.50;5051662;28;20863;-50
2023/09/05 03:37:54;;;;;;;16.27;9.63;;;;;;;15.58;100.00;101089.78;5048220;28;20140;-54
2023/09/05 03:40:19;;;;;;;17.50;10.20;;;;;;;15.48;100.00;101081.38;5061491;28;20103;-52
2023/09/05 03:42:45;;;;;;;13.70;10.10;;;;;;;15.40;100.00;101084.28;5054073;28;20481;-52
2023/09/05 03:45:10;;;;;;;14.20;9.48;;;;;;;15.33;100.00;101076.25;5057410;28;20115;-52
2023/09/05 03:47:35;;;;;;;13.85;9.20;;;;;;;15.25;100.00;101081.81;5054872;28;20154;-54
2023/09/05 03:50:01;;;;;;;13.15;8.68;;;;;;;15.19;100.00;101077.31;5058156;28;20032;-51
2023/09/05 03:52:26;;;;;;;11.98;8.95;;;;;;;15.16;100.00;101069.72;5061394;28;20452;-49
2023/09/05 03:54:51;;;;;;;12.65;8.80;;;;;;;15.14;100.00;101066.44;5052829;28;20079;-50
2023/09/05 03:57:17;;;;;;;14.15;10.85;;;;;;;15.20;100.00;101077.09;5058687;28;20131;-51
2023/09/05 03:59:42;;;;;;;16.65;10.48;;;;;;;15.24;100.00;101078.34;5057329;28;20136;-53
2023/09/05 04:02:08;;;;;;;14.52;9.00;;;;;;;15.27;100.00;101077.91;5062028;28;20055;-51
2023/09/05 04:04:33;;;;;;;14.68;10.68;;;;;;;15.18;100.00;101067.66;5060829;28;20037;-52
2023/09/05 04:06:58;;;;;;;14.55;10.32;;;;;;;15.13;100.00;101078.97;5051448;28;20112;-49
2023/09/05 04:09:24;;;;;;;14.57;9.52;;;;;;;15.07;100.00;101079.78;5061921;28;20040;-50
2023/09/05 04:11:49;;;;;;;13.18;9.82;;;;;;;14.97;100.00;101080.22;5061288;28;20053;-52
2023/09/05 04:14:14;;;;;;;16.83;8.57;;;;;;;14.90;100.00;101074.03;5051530;28;20453;-53
2023/09/05 04:16:41;;;;;;;13.57;9.15;;;;;;;14.83;100.00;101070.53;5056480;28;20169;-53
2023/09/05 04:19:08;;;;;;;12.93;8.23;;;;;;;14.75;100.00;101065.41;5061923;28;20025;-52
2023/09/05 04:21:33;;;;;;;15.25;9.15;;;;;;;14.64;100.00;101074.00;5051419;28;20035;-52
2023/09/05 04:23:58;;;;;;;19.77;9.00;;;;;;;14.61;100.00;101073.41;5056748;28;20029;-52
2023/09/05 04:26:25;;;;;;;15.00;9.95;;;;;;;14.56;100.00;101088.34;5047423;28;20378;-51
2023/09/05 04:28:50;;;;;;;17.05;9.93;;;;;;;14.53;100.00;101084.28;5056725;28;20040;-50
2023/09/05 04:31:19;;;;;;;12.43;8.43;;;;;;;14.50;100.00;101092.63;5054264;28;20036;-50
2023/09/05 04:33:45;;;;;;;14.43;8.50;;;;;;;14.47;100.00;101106.38;5055772;28;20522;-53
2023/09/05 04:36:10;;;;;;;12.38;8.23;;;;;;;14.44;100.00;101109.44;5057075;28;20041;-51
2023/09/05 04:38:37;;;;;;;12.05;8.73;;;;;;;14.39;100.00;101115.38;5052525;28;20120;-53
2023/09/05 04:41:03;;;;;;;10.82;7.75;;;;;;;14.34;100.00;101115.16;5062515;28;20064;-50
2023/09/05 04:43:30;;;;;;;12.82;7.72;;;;;;;14.32;100.00;101114.53;5061299;28;20823;-52
2023/09/05 04:45:56;;;;;;;12.02;8.57;;;;;;;14.31;100.00;101112.91;5064980;28;20107;-49
2023/09/05 04:48:22;;;;;;;11.00;7.88;;;;;;;14.28;100.00;101115.97;5059683;28;20107;-53
2023/09/05 04:50:47;;;;;;;14.43;7.72;;;;;;;14.27;100.00;101111.66;5055068;28;20043;-50
2023/09/05 04:53:12;;;;;;;14.85;9.15;;;;;;;14.22;100.00;101113.28;5064026;28;20025;-55
2023/09/05 04:55:42;;;;;;;14.65;8.65;;;;;;;14.16;100.00;101118.38;5066873;28;20055;-52
2023/09/05 04:58:07;;;;;;;16.17;8.52;;;;;;;14.09;100.00;101120.19;5050206;28;20028;-52
2023/09/05 05:00:33;;;;;;;18.42;8.45;;;;;;;14.03;100.00;101121.00;5061663;28;20350;-54
2023/09/05 05:02:59;;;;;;;15.30;8.98;;;;;;;14.05;100.00;101123.47;5060261;28;20052;-53
2023/09/05 05:05:24;;;;;;;13.07;8.25;;;;;;;14.02;100.00;101122.03;5061435;28;20478;-52
2023/09/05 05:07:50;;;;;;;9.50;7.13;;;;;;;13.93;100.00;101110.69;5049095;28;20115;-51
2023/09/05 05:10:15;;;;;;;11.98;8.45;;;;;;;13.82;100.00;101113.09;5063820;28;20115;-53
2023/09/05 05:12:41;;;;;;;9.10;7.22;;;;;;;13.75;100.00;101118.38;5054507;28;20500;-53
2023/09/05 05:15:07;;;;;;;10.02;7.40;;;;;;;13.67;100.00;101115.88;5073179;28;20035;-53
2023/09/05 05:17:34;;;;;;;11.63;8.70;;;;;;;13.56;100.00;101103.13;5061273;28;20036;-53
2023/09/05 05:19:59;;;;;;;10.82;6.82;;;;;;;13.45;100.00;101105.28;5058300;28;20449;-52
2023/09/05 05:22:25;;;;;;;11.98;8.32;;;;;;;13.39;100.00;101094.59;5062053;28;20036;-49
2023/09/05 05:24:51;;;;;;;12.73;8.27;;;;;;;13.33;100.00;101096.19;5065658;28;20024;-50
2023/09/05 05:27:16;;;;;;;14.30;9.50;;;;;;;13.36;100.00;101100.31;5053762;28;20036;-51
2023/09/05 05:29:41;;;;;;;13.05;9.20;;;;;;;13.44;100.00;101100.16;5052873;28;20389;-52
2023/09/05 05:32:07;;;;;;;14.27;8.75;;;;;;;13.44;100.00;101085.00;5060541;28;20040;-48
2023/09/05 05:34:32;;;;;;;12.55;8.45;;;;;;;13.42;100.00;101091.53;5057300;28;20496;-47
2023/09/05 05:36:58;;;;;;;15.63;8.88;;;;;;;13.43;100.00;101093.19;5054913;28;20070;-52
2023/09/05 05:39:25;;;;;;;15.98;9.40;;;;;;;13.42;100.00;101094.19;5055283;28;20032;-50
2023/09/05 05:41:50;;;;;;;14.05;8.05;;;;;;;13.48;100.00;101088.91;5051521;28;20171;-54
2023/09/05 05:44:16;;;;;;;13.18;8.93;;;;;;;13.50;100.00;101088.69;5057239;28;20036;-51
2023/09/05 05:46:41;;;;;;;15.82;9.18;;;;;;;13.50;100.00;101086.03;5055060;28;20027;-51
2023/09/05 05:49:08;;;;;;;13.00;8.70;;;;;;;13.51;100.00;101090.38;5061724;28;20528;-53
2023/09/05 05:51:33;;;;;;;15.40;9.90;;;;;;;13.45;100.00;101096.47;5056212;28;20587;-53
2023/09/05 05:53:59;;;;;;;13.25;8.85;;;;;;;13.50;100.00;101099.34;5055511;28;20032;-53
2023/09/05 05:56:24;;;;;;;13.25;8.82;;;;;;;13.53;100.00;101088.34;5056563;28;20611;-53
2023/09/05 05:58:49;;;;;;;16.63;10.35;;;;;;;13.57;100.00;101097.56;5051020;28;20048;-50
2023/09/05 06:01:17;;;;;;;15.55;10.65;;;;;;;13.60;100.00;101088.34;5056212;28;20117;-52
2023/09/05 06:03:43;;;;;;;17.98;10.38;;;;;;;13.64;100.00;101089.63;5048758;28;20454;-48
2023/09/05 06:06:09;;;;;;;13.88;9.68;;;;;;;13.68;100.00;101094.38;5052279;28;20115;-49
2023/09/05 06:08:34;;;;;;;13.10;8.55;;;;;;;13.71;100.00;101091.31;5049305;28;20515;-52
2023/09/05 06:10:59;;;;;;;15.93;9.93;;;;;;;13.70;100.00;101088.84;5057647;28;20037;-49
2023/09/05 06:13:25;;;;;;;18.45;9.15;;;;;;;13.72;100.00;101092.94;5048028;28;20035;-50
2023/09/05 06:15:50;;;;;;;14.65;8.90;;;;;;;13.74;100.00;101098.91;5052032;28;20041;-51
2023/09/05 06:18:15;;;;;;;17.40;9.15;;;;;;;13.73;100.00;101094.59;5058766;28;20385;-53
2023/09/05 06:20:41;;;;;;;18.08;9.80;;;;;;;13.74;100.00;101098.91;5053725;28;20486;-50
2023/09/05 06:23:06;;;;;;;14.27;8.88;;;;;;;13.84;100.00;101101.22;5052669;28;20454;-55
2023/09/05 06:25:31;;;;;;;14.35;8.70;;;;;;;13.85;100.00;101110.03;5052754;28;20043;-54
2023/09/05 06:27:58;;;;;;;12.23;8.25;;;;;;;13.91;100.00;101109.22;5055145;28;20116;-51
2023/09/05 06:30:23;;;;;;;15.05;8.98;;;;;;;14.08;100.00;101112.41;5055716;28;20040;-50
2023/09/05 06:32:49;;;;;;;14.18;9.73;;;;;;;14.23;100.00;101099.75;5063169;28;20664;-48
2023/09/05 06:35:15;;;;;;;13.75;9.68;;;;;;;14.34;100.00;101101.00;5052980;28;20082;-52
2023/09/05 06:37:41;;;;;;;18.25;11.65;;;;;;;14.47;100.00;101100.22;5057105;28;20028;-51
2023/09/05 06:40:09;;;;;;;15.40;9.25;;;;;;;14.64;100.00;101106.88;5059286;28;20025;-50
2023/09/05 06:42:37;;;;;;;17.60;10.35;;;;;;;14.73;100.00;101110.16;5060396;28;20505;-51
2023/09/05 06:45:06;;;;;;;19.38;11.32;;;;;;;14.85;100.00;101103.19;5048505;28;20028;-54
2023/09/05 06:47:32;;;;;;;21.80;12.02;;;;;;;14.97;100.00;101096.22;5051102;28;20388;-49
2023/09/05 06:49:57;;;;;;;18.67;11.20;;;;;;;15.10;100.00;101094.56;5053456;28;20040;-51
2023/09/05 06:52:23;;;;;;;20.48;12.85;;;;;;;15.21;100.00;101086.78;5048695;28;20119;-49
2023/09/05 06:54:48;;;;;;;16.33;11.07;;;;;;;15.27;100.00;101090.47;5052273;28;20508;-48
2023/09/05 06:57:15;;;;;;;27.67;13.20;;;;;;;15.53;100.00;101091.44;5067207;28;20028;-51
2023/09/05 06:59:40;;;;;;;21.17;13.30;;;;;;;15.78;100.00;101091.63;5055598;28;20056;-49
2023/09/05 07:02:05;;;;;;;18.70;11.85;;;;;;;16.14;100.00;101096.44;5068048;28;20059;-51
2023/09/05 07:04:31;;;;;;;21.33;12.23;;;;;;;16.58;100.00;101103.59;5053317;28;20043;-50
2023/09/05 07:07:00;;;;;;;22.05;14.63;;;;;;;17.00;100.00;101100.44;5058000;28;20039;-49
2023/09/05 07:09:26;;;;;;;21.33;13.65;;;;;;;17.43;100.00;101105.03;5048156;28;20512;-53
2023/09/05 07:11:51;;;;;;;21.02;13.35;;;;;;;17.73;100.00;101104.31;5053753;28;20119;-49
2023/09/05 07:14:16;;;;;;;14.65;10.32;;;;;;;17.85;100.00;101100.69;5060666;28;20360;-48
2023/09/05 07:16:42;;;;;;;19.27;12.10;;;;;;;18.02;100.00;101100.09;5048827;28;20135;-52
2023/09/05 07:19:07;;;;;;;23.05;14.88;;;;;;;18.28;100.00;101107.00;5047771;28;20595;-54
2023/09/05 07:21:32;;;;;;;14.55;11.20;;;;;;;18.52;100.00;101097.16;5054682;28;20032;-51
2023/09/05 07:23:58;;;;;;;16.20;11.10;;;;;;;18.69;100.00;101091.94;5055604;28;20097;-50
2023/09/05 07:26:23;;;;;;;15.27;11.27;;;;;;;18.72;100.00;101092.31;5050009;28;20166;-52
2023/09/05 07:28:49;;;;;;;17.88;11.20;;;;;;;18.84;100.00;101092.34;5046671;28;20032;-52
2023/09/05 07:31:14;;;;;;;14.80;11.07;;;;;;;18.99;100.00;101096.47;5056666;28;20045;-52
2023/09/05 07:33:40;;;;;;;18.10;10.10;;;;;;;19.16;100.00;101102.81;5045455;28;20103;-49
2023/09/05 07:36:06;;;;;;;20.25;11.68;;;;;;;19.38;100.00;101095.78;5055166;28;20039;-49
2023/09/05 07:38:31;;;;;;;18.63;11.70;;;;;;;19.60;100.00;101089.81;5053171;28;20029;-54
2023/09/05 07:41:04;;;;;;;14.85;9.50;;;;;;;19.75;100.00;101090.16;5043055;28;20119;-53
2023/09/05 07:43:30;;;;;;;15.02;9.50;;;;;;;19.87;100.00;101082.06;5050093;28;20044;-54
2023/09/05 07:45:56;;;;;;;15.88;10.15;;;;;;;19.90;100.00;101075.38;5048508;28;20080;-50
2023/09/05 07:48:21;;;;;;;14.82;9.27;;;;;;;20.05;100.00;101075.69;5055063;28;20024;-51
2023/09/05 07:50:49;;;;;;;11.75;8.10;;;;;;;20.15;100.00;101077.75;5046951;28;20554;-49
2023/09/05 07:53:14;;;;;;;13.93;8.77;;;;;;;20.30;100.00;101080.75;5050248;28;20389;-54
2023/09/05 07:55:40;;;;;;;11.60;8.90;;;;;;;20.36;100.00;101081.66;5049341;28;20474;-53
2023/09/05 07:58:05;;;;;;;9.68;7.05;;;;;;;20.50;100.00;101080.31;5052149;28;20114;-53
2023/09/05 08:00:31;;;;;;;11.65;8.20;;;;;;;20.51;100.00;101076.53;5055328;28;20918;-53
2023/09/05 08:02:57;;;;;;;10.82;7.30;;;;;;;20.75;100.00;101076.41;5062480;28;20032;-51
2023/09/05 08:05:22;;;;;;;13.60;7.72;;;;;;;20.93;100.00;101068.09;5055423;28;20029;-49
2023/09/05 08:07:48;;;;;;;11.65;6.20;;;;;;;21.08;100.00;101051.34;5053748;28;20527;-50
2023/09/05 08:10:13;;;;;;;15.35;7.43;;;;;;;21.18;100.00;101038.00;5059023;28;20024;-54
2023/09/05 08:12:39;;;;;;;8.45;6.57;;;;;;;21.30;100.00;101025.25;5049408;28;20040;-50
2023/09/05 08:15:05;;;;;;;7.03;5.45;;;;;;;21.37;100.00;101027.75;5044710;28;20039;-49
2023/09/05 08:17:31;;;;;;;8.65;5.47;;;;;;;21.53;100.00;101036.91;5056513;28;20035;-51
2023/09/05 08:19:57;;;;;;;10.55;6.25;;;;;;;21.63;100.00;101028.91;5056572;28;20024;-52
2023/09/05 08:22:22;;;;;;;12.80;7.00;;;;;;;21.75;100.00;101034.19;5064843;28;20032;-49
2023/09/05 08:24:47;;;;;;;8.15;5.63;;;;;;;21.92;100.00;101031.44;5069751;28;20064;-54
2023/09/05 08:27:13;;;;;;;10.82;5.40;;;;;;;22.11;100.00;101024.59;5050437;28;20033;-54
2023/09/05 08:29:39;;;;;;;6.80;5.85;;;;;;;22.29;100.00;101019.94;5048746;28;20041;-52
2023/09/05 08:32:05;;;;;;;10.23;5.85;;;;;;;22.45;100.00;101010.91;5053546;28;20512;-51
2023/09/05 08:34:32;;;;;;;7.75;4.97;;;;;;;22.71;100.00;101006.50;5048727;28;20283;-51
2023/09/05 08:36:58;;;;;;;8.50;5.65;;;;;;;22.91;100.00;101000.44;5057125;28;20048;-55
2023/09/05 08:39:24;;;;;;;7.40;4.82;;;;;;;23.00;100.00;100998.06;5050863;28;20020;-54
2023/09/05 08:41:49;;;;;;;7.80;4.57;;;;;;;23.11;100.00;100994.38;5050445;28;20072;-53
2023/09/05 08:44:15;;;;;;;7.15;5.13;;;;;;;22.93;100.00;100998.28;5047432;28;20382;-52
2023/09/05 08:46:42;;;;;;;7.72;3.92;;;;;;;23.21;100.00;101002.53;5049178;28;20036;-52
2023/09/05 08:49:07;;;;;;;6.53;4.32;;;;;;;23.53;100.00;100996.19;5051041;28;20157;-55
2023/09/05 08:51:38;;;;;;;12.00;5.30;;;;;;;23.65;100.00;101004.09;5058110;28;20489;-54
2023/09/05 08:54:06;;;;;;;7.35;3.45;;;;;;;23.70;100.00;101004.91;5054685;28;20077;-53
2023/09/05 08:56:32;;;;;;;6.95;3.90;;;;;;;23.90;100.00;101006.88;5053236;28;20439;-51
2023/09/05 08:59:02;;;;;;;8.57;4.10;;;;;;;23.98;100.00;101002.81;5059274;28;20032;-54
2023/09/05 09:01:29;;;;;;;3.90;3.40;;;;;;;24.22;100.00;100999.63;5049682;28;20029;-52
2023/09/05 09:03:55;;;;;;;4.95;3.38;;;;;;;24.16;100.00;101005.03;5055462;28;20029;-51
2023/09/05 09:06:25;;;;;;;5.03;3.60;;;;;;;24.27;100.00;100994.22;5048032;28;20687;-56
2023/09/05 09:08:50;;;;;;;5.55;4.10;;;;;;;24.42;100.00;100993.38;5051709;28;20037;-51
2023/09/05 09:11:19;;;;;;;6.15;3.90;;;;;;;24.44;100.00;100988.50;5050011;28;20032;-51
2023/09/05 09:13:47;;;;;;;4.88;3.35;;;;;;;24.52;100.00;100985.28;5050008;28;20094;-50
2023/09/05 09:16:18;;;;;;;4.63;2.83;;;;;;;24.54;100.00;100983.13;5053203;28;20040;-57
2023/09/05 09:18:58;;;;;;;;;;;;;;;24.17;100.00;100981.47;5061071;28;20071;-53
2023/09/05 09:21:27;;;;;;;4.90;3.83;;;;;;;24.30;100.00;100977.41;5050985;28;20000;-56
2023/09/05 09:23:57;;;;;;;3.85;2.72;;;;;;;24.69;100.00;100979.59;5058305;28;20032;-54
2023/09/05 09:26:27;;;;;;;3.17;2.30;;;;;;;25.08;100.00;100963.50;5056410;28;20033;-50
2023/09/05 09:28:53;;;;;;;2.47;2.28;;;;;;;25.20;100.00;100957.81;5053901;28;20033;-55
2023/09/05 09:31:24;;;;;;;4.43;2.55;;;;;;;25.41;100.00;100951.19;5053288;28;20056;-52
2023/09/05 09:33:53;;;;;;;;;;;;;;;25.65;100.00;100950.50;5058959;28;20063;-52
2023/09/05 09:36:19;;;;;;;2.65;2.45;;;;;;;25.52;100.00;100951.13;5049253;28;19920;-53
2023/09/05 09:38:44;;;;;;;4.43;2.65;;;;;;;25.62;100.00;100959.22;5058457;28;20728;-54
2023/09/05 09:41:11;;;;;;;7.43;2.28;;;;;;;25.74;100.00;100950.72;5050892;28;20117;-53
2023/09/05 09:43:37;;;;;;;4.93;3.10;;;;;;;25.89;100.00;100954.19;5050964;28;20082;-56
2023/09/05 09:46:05;;;;;;;3.25;3.00;;;;;;;26.02;100.00;100946.50;5052357;28;20147;-55
2023/09/05 09:48:33;;;;;;;4.28;2.40;;;;;;;26.07;100.00;100939.13;5040881;28;21390;-50
2023/09/05 09:51:00;;;;;;;3.50;2.40;;;;;;;26.19;100.00;100949.63;5037540;28;20036;-50
2023/09/05 09:53:38;;;;;;;1.67;1.58;;;;;;;26.42;100.00;100944.53;5040718;28;20029;-55
2023/09/05 09:56:10;;;;;;;3.00;2.28;;;;;;;26.45;100.00;100949.41;5039321;28;20118;-54
2023/09/05 09:58:40;;;;;;;5.47;2.22;;;;;;;26.60;100.00;100943.84;5045716;28;20021;-50
2023/09/05 10:01:11;;;;;;;1.63;1.53;;;;;;;26.66;100.00;100945.41;5043700;28;20048;-52
2023/09/05 10:03:37;;;;;;;4.80;2.13;;;;;;;26.59;100.00;100944.97;5049374;28;20300;-52
2023/09/05 10:06:06;;;;;;;2.67;1.85;;;;;;;26.61;100.00;100937.31;5047142;28;20554;-53
2023/09/05 10:08:35;;;;;;;7.68;1.73;;;;;;;26.66;100.00;100939.97;5044458;28;20075;-54
2023/09/05 10:11:02;;;;;;;1.85;1.30;;;;;;;26.84;100.00;100924.00;5042375;28;20032;-55
2023/09/05 10:13:32;;;;;;;3.72;1.60;;;;;;;26.84;100.00;100924.00;5043240;28;20048;-51
2023/09/05 10:16:01;;;;;;;2.83;1.67;;;;;;;26.95;100.00;100925.50;5044122;28;20041;-54
2023/09/05 10:18:28;;;;;;;2.05;1.20;;;;;;;27.06;100.00;100921.59;5048397;28;20428;-55
2023/09/05 10:20:55;;;;;;;2.90;1.65;;;;;;;27.13;100.00;100927.50;5042586;28;20047;-51
2023/09/05 10:23:20;;;;;;;3.15;1.52;;;;;;;27.26;100.00;100912.38;5044850;28;20020;-52
2023/09/05 10:25:47;;;;;;;1.85;1.20;;;;;;;27.51;100.00;100919.38;5040218;28;20095;-51
2023/09/05 10:28:13;;;;;;;3.97;1.88;;;;;;;27.63;100.00;100905.31;5047543;28;20043;-51
2023/09/05 10:30:46;;;;;;;1.88;1.33;;;;;;;27.60;100.00;100904.00;5043082;28;20044;-54
2023/09/05 10:33:13;;;;;;;2.47;1.55;;;;;;;27.67;100.00;100895.44;5047451;28;20033;-52
2023/09/05 10:35:45;;;;;;;3.10;1.38;;;;;;;27.75;100.00;100897.53;5039164;28;20025;-53
2023/09/05 10:38:13;;;;;;;1.70;1.17;;;;;;;27.85;100.00;100902.00;5042802;28;20029;-50
2023/09/05 10:40:39;;;;;;;1.88;1.58;;;;;;;27.96;100.00;100906.19;5038369;28;20040;-50
2023/09/05 10:43:07;;;;;;;2.67;0.82;;;;;;;27.73;100.00;100902.44;5036348;28;20026;-49
2023/09/05 10:45:40;;;;;;;1.52;1.10;;;;;;;27.76;100.00;100909.22;5040840;28;20025;-46
2023/09/05 10:48:15;;;;;;;1.33;1.20;;;;;;;27.86;100.00;100906.38;5043774;28;20421;-49
2023/09/05 10:51:10;;;;;;;1.80;1.33;;;;;;;27.87;100.00;100913.44;5049159;28;20178;-50
2023/09/05 10:53:40;;;;;;;1.92;0.73;;;;;;;28.11;100.00;100910.56;5043880;28;20478;-50
2023/09/05 10:56:43;;;;;;;3.33;1.42;;;;;;;28.33;100.00;100920.84;5056995;28;20466;-50
2023/09/05 10:59:10;;;;;;;6.88;1.42;;;;;;;28.28;100.00;100915.47;5045130;28;20041;-46
2023/09/05 11:01:43;;;;;;;1.15;1.05;;;;;;;28.47;100.00;100915.44;5037012;28;20068;-48
2023/09/05 11:04:17;;;;;;;1.00;0.90;;;;;;;28.62;100.00;100917.06;5038441;28;20033;-51
2023/09/05 11:06:55;;;;;;;3.90;0.93;;;;;;;28.86;100.00;100903.22;5041025;28;20028;-51
2023/09/05 11:09:21;;;;;;;0.95;0.95;;;;;;;29.05;100.00;100903.16;5039537;28;20028;-53
2023/09/05 11:11:46;;;;;;;2.25;1.30;;;;;;;29.10;100.00;100905.78;5037066;28;20362;-50